Time;durP1;ratioP1;P1;durP2;ratioP2;P2;SDS_P1;SDS_P2;PMS_P1;PMS_P2;Temp;Humidity;BMP_temperature;BMP_pressure;BME280_temperature;BME280_humidity;BME280_pressure;Samples;Min_cycle;Max_cycle;Signal;HPM_P1;HPM_P2
2023/04/30 00:01:37;;;;;;;7.65;4.40;;;;;;;;;;5009294;28;20053;-68
2023/04/30 00:04:02;;;;;;;4.80;4.15;;;;;;;;;;5011995;28;20083;-68
2023/04/30 00:06:28;;;;;;;5.35;4.38;;;;;;;;;;5019946;28;20049;-70
2023/04/30 00:08:53;;;;;;;6.03;4.30;;;;;;;;;;5016267;28;20156;-67
2023/04/30 00:11:19;;;;;;;6.97;4.30;;;;;;;;;;5019660;28;20041;-67
2023/04/30 00:13:44;;;;;;;6.50;4.00;;;;;;;;;;5020049;28;20079;-67
2023/04/30 00:16:09;;;;;;;7.13;4.30;;;;;;;;;;5019514;28;20041;-68
2023/04/30 00:18:35;;;;;;;5.13;3.90;;;;;;;;;;5019415;28;20136;-68
2023/04/30 00:21:01;;;;;;;6.03;4.50;;;;;;;;;;5034268;28;20950;-68
2023/04/30 00:23:26;;;;;;;4.50;3.95;;;;;;;;;;5019707;28;20072;-67
2023/04/30 00:25:51;;;;;;;4.20;3.80;;;;;;;;;;5019742;28;20136;-70
2023/04/30 00:28:17;;;;;;;8.73;3.70;;;;;;;;;;5023438;28;20045;-69
2023/04/30 00:30:42;;;;;;;6.38;3.97;;;;;;;;;;5019993;28;20053;-69
2023/04/30 00:33:08;;;;;;;6.43;4.43;;;;;;;;;;5022276;28;20045;-70
2023/04/30 00:35:33;;;;;;;8.00;4.20;;;;;;;;;;5015696;28;20136;-68
2023/04/30 00:37:59;;;;;;;5.95;4.15;;;;;;;;;;5022451;28;20053;-68
2023/04/30 00:40:25;;;;;;;6.40;4.90;;;;;;;;;;5022851;28;20156;-68
2023/04/30 00:42:52;;;;;;;4.90;4.40;;;;;;;;;;5020772;28;20073;-68
2023/04/30 00:45:20;;;;;;;4.60;4.10;;;;;;;;;;5021290;28;20517;-68
2023/04/30 00:47:47;;;;;;;5.78;4.15;;;;;;;;;;5022314;28;20049;-68
2023/04/30 00:50:14;;;;;;;6.80;5.05;;;;;;;;;;5021759;28;20053;-68
2023/04/30 00:52:41;;;;;;;6.45;4.30;;;;;;;;;;5022372;28;20061;-68
2023/04/30 00:55:07;;;;;;;6.75;4.80;;;;;;;;;;5036501;28;20048;-68
2023/04/30 00:57:35;;;;;;;5.78;4.63;;;;;;;;;;5023465;28;20085;-68
2023/04/30 01:00:01;;;;;;;7.82;4.57;;;;;;;;;;5038611;28;20045;-67
2023/04/30 01:02:28;;;;;;;5.80;4.20;;;;;;;;;;5022889;28;20160;-67
2023/04/30 01:04:54;;;;;;;5.82;4.55;;;;;;;;;;5036670;28;20125;-68
2023/04/30 01:07:19;;;;;;;6.72;4.13;;;;;;;;;;5018645;28;20136;-68
2023/04/30 01:09:45;;;;;;;6.18;4.47;;;;;;;;;;5019338;28;20132;-68
2023/04/30 01:12:43;;;;;;;7.85;4.85;;;;;;;;;;5034673;28;20949;-67
2023/04/30 01:15:22;;;;;;;5.50;4.53;;;;;;;;;;5023733;28;20045;-67
2023/04/30 01:18:17;;;;;;;5.32;3.85;;;;;;;;;;5016573;28;20050;-67
2023/04/30 01:20:48;;;;;;;7.82;4.40;;;;;;;;;;5018911;28;20045;-67
2023/04/30 01:23:25;;;;;;;5.55;4.32;;;;;;;;;;5021566;28;20041;-68
2023/04/30 01:26:10;;;;;;;6.78;4.25;;;;;;;;;;5037899;28;20041;-68
2023/04/30 01:28:37;;;;;;;4.97;3.83;;;;;;;;;;5020472;28;20659;-68
2023/04/30 01:31:02;;;;;;;7.18;4.10;;;;;;;;;;4991472;28;20766;-67
2023/04/30 01:33:28;;;;;;;7.25;4.13;;;;;;;;;;5036908;28;20051;-68
2023/04/30 01:36:09;;;;;;;6.10;4.22;;;;;;;;;;5037796;28;20044;-66
2023/04/30 01:38:59;;;;;;;5.90;4.00;;;;;;;;;;5021877;28;20053;-66
2023/04/30 01:41:33;;;;;;;8.55;4.50;;;;;;;;;;5033975;28;20095;-67
2023/04/30 01:44:23;;;;;;;6.45;3.97;;;;;;;;;;5013269;28;20555;-67
2023/04/30 01:47:01;;;;;;;6.50;5.00;;;;;;;;;;5019963;28;20049;-67
2023/04/30 01:50:02;;;;;;;6.72;4.25;;;;;;;;;;5022540;28;20144;-67
2023/04/30 01:52:43;;;;;;;10.20;4.97;;;;;;;;;;5037380;28;20034;-67
2023/04/30 01:55:19;;;;;;;5.85;4.72;;;;;;;;;;4988361;28;20049;-67
2023/04/30 01:58:08;;;;;;;8.27;4.72;;;;;;;;;;5037471;28;20140;-67
2023/04/30 02:00:33;;;;;;;7.65;4.30;;;;;;;;;;5036436;28;20426;-67
2023/04/30 02:02:59;;;;;;;6.18;4.05;;;;;;;;;;5020753;28;20046;-67
2023/04/30 02:05:25;;;;;;;6.25;4.38;;;;;;;;;;5020544;28;20053;-67
2023/04/30 02:07:51;;;;;;;5.60;4.28;;;;;;;;;;5020672;28;20057;-67
2023/04/30 02:10:20;;;;;;;6.40;4.60;;;;;;;;;;5021539;28;20043;-67
2023/04/30 02:12:46;;;;;;;5.22;4.35;;;;;;;;;;5016748;28;20049;-67
2023/04/30 02:15:12;;;;;;;6.00;4.63;;;;;;;;;;5020232;28;20044;-67
2023/04/30 02:17:39;;;;;;;7.15;4.32;;;;;;;;;;5007750;28;20116;-67
2023/04/30 02:20:07;;;;;;;7.10;4.63;;;;;;;;;;5019949;28;20069;-67
2023/04/30 02:22:33;;;;;;;7.05;4.78;;;;;;;;;;5019580;28;20051;-68
2023/04/30 02:24:58;;;;;;;7.40;5.00;;;;;;;;;;5021481;28;20050;-67
2023/04/30 02:27:25;;;;;;;6.25;4.30;;;;;;;;;;5013371;28;20073;-67
2023/04/30 02:29:51;;;;;;;6.20;4.82;;;;;;;;;;5013897;28;20429;-67
2023/04/30 02:32:16;;;;;;;7.57;4.93;;;;;;;;;;5021338;28;20077;-67
2023/04/30 02:34:42;;;;;;;8.70;4.80;;;;;;;;;;5036473;28;20084;-67
2023/04/30 02:37:08;;;;;;;9.75;5.25;;;;;;;;;;5021271;28;20041;-68
2023/04/30 02:39:33;;;;;;;7.03;4.57;;;;;;;;;;5020641;28;20495;-70
2023/04/30 02:41:59;;;;;;;6.93;4.43;;;;;;;;;;5013306;28;20483;-68
2023/04/30 02:44:25;;;;;;;6.03;4.93;;;;;;;;;;5019451;28;20129;-68
2023/04/30 02:46:50;;;;;;;6.55;4.47;;;;;;;;;;5036034;28;20061;-68
2023/04/30 02:49:16;;;;;;;7.38;4.82;;;;;;;;;;5019592;28;20046;-67
2023/04/30 02:51:42;;;;;;;8.23;5.50;;;;;;;;;;5019600;28;20061;-67
2023/04/30 02:54:08;;;;;;;6.35;5.05;;;;;;;;;;5020654;28;20046;-67
2023/04/30 02:56:33;;;;;;;6.55;4.97;;;;;;;;;;5020757;28;20933;-67
2023/04/30 02:58:59;;;;;;;6.18;4.70;;;;;;;;;;5021134;28;20053;-67
2023/04/30 03:01:25;;;;;;;7.55;5.28;;;;;;;;;;5035185;28;20038;-67
2023/04/30 03:03:50;;;;;;;7.55;5.63;;;;;;;;;;5035677;28;20391;-67
2023/04/30 03:06:16;;;;;;;10.75;5.68;;;;;;;;;;5019669;28;20045;-67
2023/04/30 03:08:41;;;;;;;6.85;5.15;;;;;;;;;;5035499;28;20041;-67
2023/04/30 03:11:07;;;;;;;7.38;5.30;;;;;;;;;;5020299;28;20050;-67
2023/04/30 03:13:32;;;;;;;7.35;5.28;;;;;;;;;;5020361;28;20668;-68
2023/04/30 03:16:05;;;;;;;7.13;5.13;;;;;;;;;;5020939;28;20046;-68
2023/04/30 03:18:31;;;;;;;7.03;5.78;;;;;;;;;;5018190;28;20045;-69
2023/04/30 03:20:57;;;;;;;8.05;5.70;;;;;;;;;;5017405;28;20049;-67
2023/04/30 03:23:22;;;;;;;7.07;5.20;;;;;;;;;;5035402;28;20136;-68
2023/04/30 03:25:48;;;;;;;6.78;5.20;;;;;;;;;;5035142;28;20045;-68
2023/04/30 03:28:14;;;;;;;9.75;5.47;;;;;;;;;;5018309;28;20215;-68
2023/04/30 03:30:40;;;;;;;7.30;5.35;;;;;;;;;;5014081;28;20045;-67
2023/04/30 03:33:05;;;;;;;7.15;5.22;;;;;;;;;;5013787;28;20828;-67
2023/04/30 03:35:32;;;;;;;6.30;5.20;;;;;;;;;;5018607;28;20061;-66
2023/04/30 03:38:01;;;;;;;9.40;6.07;;;;;;;;;;5015115;28;20059;-68
2023/04/30 03:40:26;;;;;;;8.10;5.55;;;;;;;;;;5019817;28;20045;-68
2023/04/30 03:42:51;;;;;;;7.40;5.47;;;;;;;;;;5019390;28;20068;-67
2023/04/30 03:45:17;;;;;;;7.03;5.75;;;;;;;;;;5011881;28;20053;-67
2023/04/30 03:47:43;;;;;;;9.27;5.55;;;;;;;;;;5018247;28;20089;-67
2023/04/30 03:50:09;;;;;;;9.80;5.78;;;;;;;;;;5019379;28;20079;-68
2023/04/30 03:52:38;;;;;;;7.57;5.35;;;;;;;;;;5034330;28;20060;-66
2023/04/30 03:55:04;;;;;;;7.28;5.65;;;;;;;;;;5034884;28;20099;-69
2023/04/30 03:57:30;;;;;;;7.32;5.95;;;;;;;;;;5034300;28;20442;-67
2023/04/30 03:59:56;;;;;;;9.68;6.32;;;;;;;;;;5019520;28;20053;-67
2023/04/30 04:02:22;;;;;;;9.45;7.03;;;;;;;;;;5017216;28;20498;-67
2023/04/30 04:04:48;;;;;;;8.02;6.20;;;;;;;;;;5034014;28;20065;-67
2023/04/30 04:07:14;;;;;;;8.05;6.78;;;;;;;;;;5019453;28;20068;-67
2023/04/30 04:09:40;;;;;;;11.10;7.55;;;;;;;;;;5018374;28;20388;-67
2023/04/30 04:12:06;;;;;;;11.75;6.82;;;;;;;;;;5017112;28;20111;-67
2023/04/30 04:14:31;;;;;;;8.98;6.70;;;;;;;;;;5034685;28;20045;-67
2023/04/30 04:16:58;;;;;;;9.75;6.45;;;;;;;;;;5033874;28;20056;-68
2023/04/30 04:19:27;;;;;;;7.80;5.88;;;;;;;;;;4986336;28;20045;-67
2023/04/30 04:21:53;;;;;;;8.65;6.32;;;;;;;;;;5034552;28;20051;-68
2023/04/30 04:24:19;;;;;;;7.65;5.97;;;;;;;;;;5034596;28;20285;-70
2023/04/30 04:26:45;;;;;;;10.88;6.32;;;;;;;;;;5017625;28;20410;-67
2023/04/30 04:29:11;;;;;;;8.50;5.95;;;;;;;;;;5018230;28;20069;-66
2023/04/30 04:31:40;;;;;;;9.27;6.05;;;;;;;;;;4988550;28;20045;-67
2023/04/30 04:34:06;;;;;;;8.55;6.22;;;;;;;;;;5017613;28;20132;-69
2023/04/30 04:36:32;;;;;;;8.85;6.03;;;;;;;;;;5001580;28;20168;-69
2023/04/30 04:39:02;;;;;;;8.68;6.00;;;;;;;;;;5001378;28;20410;-67
2023/04/30 04:41:30;;;;;;;8.55;6.28;;;;;;;;;;5009790;28;20060;-67
2023/04/30 04:43:55;;;;;;;6.25;5.53;;;;;;;;;;4998422;28;20041;-67
2023/04/30 04:46:24;;;;;;;7.05;5.28;;;;;;;;;;4997940;28;20422;-68
2023/04/30 04:48:51;;;;;;;6.72;5.60;;;;;;;;;;4997648;28;20050;-68
2023/04/30 04:51:17;;;;;;;8.40;5.90;;;;;;;;;;5003609;28;20081;-68
2023/04/30 04:53:43;;;;;;;9.90;5.85;;;;;;;;;;5019057;28;20076;-68
2023/04/30 04:56:09;;;;;;;8.02;5.88;;;;;;;;;;5019379;28;20046;-68
2023/04/30 04:58:34;;;;;;;8.25;6.05;;;;;;;;;;4988807;28;20053;-67
2023/04/30 05:01:00;;;;;;;8.18;6.22;;;;;;;;;;5017542;28;20457;-68
2023/04/30 05:03:27;;;;;;;7.35;6.25;;;;;;;;;;5033462;28;20057;-68
2023/04/30 05:05:52;;;;;;;8.43;6.55;;;;;;;;;;5018769;28;20412;-68
2023/04/30 05:08:18;;;;;;;8.68;6.25;;;;;;;;;;5019115;28;20612;-67
2023/04/30 05:10:43;;;;;;;8.98;5.97;;;;;;;;;;5016916;28;20407;-68
2023/04/30 05:13:08;;;;;;;7.35;5.60;;;;;;;;;;5015836;28;20386;-68
2023/04/30 05:15:34;;;;;;;7.88;6.00;;;;;;;;;;5014278;28;20045;-68
2023/04/30 05:17:59;;;;;;;6.43;5.65;;;;;;;;;;5022780;28;20441;-68
2023/04/30 05:20:25;;;;;;;8.00;6.15;;;;;;;;;;5021983;28;20045;-70
2023/04/30 05:22:51;;;;;;;8.40;5.82;;;;;;;;;;5022072;28;20112;-68
2023/04/30 05:25:16;;;;;;;8.60;6.75;;;;;;;;;;5015676;28;20034;-67
2023/04/30 05:27:41;;;;;;;7.60;6.25;;;;;;;;;;5023009;28;20061;-67
2023/04/30 05:30:08;;;;;;;8.55;5.80;;;;;;;;;;5019873;28;20045;-67
2023/04/30 05:32:34;;;;;;;6.78;5.45;;;;;;;;;;5021060;28;20068;-67
2023/04/30 05:34:59;;;;;;;7.22;5.55;;;;;;;;;;5015240;28;20188;-67
2023/04/30 05:37:25;;;;;;;7.07;5.18;;;;;;;;;;5022362;28;20131;-68
2023/04/30 05:39:52;;;;;;;6.65;5.32;;;;;;;;;;5021227;28;20049;-68
2023/04/30 05:42:18;;;;;;;7.65;5.78;;;;;;;;;;5015655;28;20811;-68
2023/04/30 05:44:44;;;;;;;7.68;5.80;;;;;;;;;;5017935;28;20048;-68
2023/04/30 05:47:09;;;;;;;5.57;5.07;;;;;;;;;;5013108;28;20045;-70
2023/04/30 05:49:35;;;;;;;9.25;5.20;;;;;;;;;;5030209;28;20076;-69
2023/04/30 05:52:02;;;;;;;5.82;5.07;;;;;;;;;;5014685;28;20041;-68
2023/04/30 05:54:28;;;;;;;7.07;4.65;;;;;;;;;;5012639;28;20132;-68
2023/04/30 05:56:53;;;;;;;5.45;4.38;;;;;;;;;;5011174;28;20053;-69
2023/04/30 05:59:19;;;;;;;5.40;4.30;;;;;;;;;;5012146;28;20072;-68
2023/04/30 06:01:44;;;;;;;5.82;4.93;;;;;;;;;;5013471;28;20049;-68
2023/04/30 06:04:10;;;;;;;6.85;4.65;;;;;;;;;;5009110;28;20737;-68
2023/04/30 06:06:36;;;;;;;5.55;4.90;;;;;;;;;;5010923;28;20434;-69
2023/04/30 06:09:02;;;;;;;5.35;4.63;;;;;;;;;;5005363;28;20049;-67
2023/04/30 06:11:28;;;;;;;5.60;4.55;;;;;;;;;;5012130;28;20053;-68
2023/04/30 06:13:54;;;;;;;6.20;4.82;;;;;;;;;;5011430;28;20044;-69
2023/04/30 06:16:20;;;;;;;7.43;3.92;;;;;;;;;;5014226;28;20048;-68
2023/04/30 06:18:46;;;;;;;5.15;4.47;;;;;;;;;;5009491;28;20048;-68
2023/04/30 06:21:11;;;;;;;5.35;4.85;;;;;;;;;;5027134;28;20068;-68
2023/04/30 06:23:36;;;;;;;5.88;5.00;;;;;;;;;;5023431;28;20049;-68
2023/04/30 06:26:02;;;;;;;5.60;4.80;;;;;;;;;;5009767;28;20116;-68
2023/04/30 06:28:28;;;;;;;5.90;4.82;;;;;;;;;;5009330;28;20138;-68
2023/04/30 06:30:54;;;;;;;4.72;4.18;;;;;;;;;;5013041;28;20061;-68
2023/04/30 06:33:20;;;;;;;5.32;4.80;;;;;;;;;;5012726;28;20116;-68
2023/04/30 06:35:45;;;;;;;6.43;4.43;;;;;;;;;;5011502;28;20123;-68
2023/04/30 06:38:11;;;;;;;6.50;4.72;;;;;;;;;;5014157;28;20151;-68
2023/04/30 06:40:36;;;;;;;6.50;4.63;;;;;;;;;;5027137;28;20048;-68
2023/04/30 06:43:02;;;;;;;5.03;4.43;;;;;;;;;;5010318;28;20072;-69
2023/04/30 06:45:27;;;;;;;4.80;4.18;;;;;;;;;;5005185;28;20072;-68
2023/04/30 06:47:53;;;;;;;6.18;5.13;;;;;;;;;;5011948;28;20045;-68
2023/04/30 06:50:20;;;;;;;6.00;4.80;;;;;;;;;;5009137;28;20729;-68
2023/04/30 06:52:46;;;;;;;5.00;4.13;;;;;;;;;;5011186;28;20131;-68
2023/04/30 06:55:11;;;;;;;7.00;4.40;;;;;;;;;;5014640;28;20140;-70
2023/04/30 06:57:37;;;;;;;6.40;5.32;;;;;;;;;;5012999;28;20042;-69
2023/04/30 07:00:06;;;;;;;6.57;5.40;;;;;;;;;;5018656;28;20111;-72
2023/04/30 07:02:32;;;;;;;6.00;4.47;;;;;;;;;;5017594;28;20052;-70
2023/04/30 07:04:57;;;;;;;13.30;4.93;;;;;;;;;;5013641;28;20050;-72
2023/04/30 07:07:23;;;;;;;8.23;4.50;;;;;;;;;;5017945;28;20048;-74
2023/04/30 07:09:49;;;;;;;5.80;4.80;;;;;;;;;;5013075;28;20531;-72
2023/04/30 07:12:14;;;;;;;4.60;3.90;;;;;;;;;;5009778;28;20041;-72
2023/04/30 07:14:40;;;;;;;5.20;4.70;;;;;;;;;;5009409;28;20049;-71
2023/04/30 07:17:05;;;;;;;6.85;4.35;;;;;;;;;;5011542;28;20046;-71
2023/04/30 07:19:31;;;;;;;4.57;4.18;;;;;;;;;;5010993;28;20608;-71
2023/04/30 07:21:57;;;;;;;4.53;3.88;;;;;;;;;;5010817;28;20052;-70
2023/04/30 07:24:22;;;;;;;5.13;4.07;;;;;;;;;;5006122;28;20065;-70
2023/04/30 07:26:47;;;;;;;7.82;4.40;;;;;;;;;;5002991;28;20038;-70
2023/04/30 07:29:13;;;;;;;5.22;4.30;;;;;;;;;;5007575;28;20597;-72
2023/04/30 07:31:38;;;;;;;4.45;4.05;;;;;;;;;;5017756;28;20127;-69
2023/04/30 07:34:04;;;;;;;4.63;4.22;;;;;;;;;;5008515;28;20124;-74
2023/04/30 07:36:29;;;;;;;4.50;4.00;;;;;;;;;;5006680;28;20467;-73
2023/04/30 07:38:55;;;;;;;5.38;4.88;;;;;;;;;;5009939;28;20049;-72
2023/04/30 07:41:20;;;;;;;5.38;4.70;;;;;;;;;;5017820;28;20049;-73
2023/04/30 07:43:46;;;;;;;5.40;4.68;;;;;;;;;;5017027;28;20041;-72
2023/04/30 07:46:11;;;;;;;5.60;4.97;;;;;;;;;;5009646;28;20073;-72
2023/04/30 07:48:37;;;;;;;5.55;5.00;;;;;;;;;;5014669;28;20439;-73
2023/04/30 07:51:03;;;;;;;6.13;5.18;;;;;;;;;;5011862;28;20041;-73
2023/04/30 07:53:29;;;;;;;6.25;4.60;;;;;;;;;;5016175;28;20049;-70
2023/04/30 07:55:55;;;;;;;7.95;5.13;;;;;;;;;;5008971;28;20107;-70
2023/04/30 07:58:20;;;;;;;5.95;4.82;;;;;;;;;;5010538;28;20049;-69
2023/04/30 08:00:46;;;;;;;6.78;4.75;;;;;;;;;;5014592;28;20037;-69
2023/04/30 08:03:12;;;;;;;5.35;4.85;;;;;;;;;;5011449;28;20037;-70
2023/04/30 08:05:37;;;;;;;5.32;4.53;;;;;;;;;;5012044;28;20783;-69
2023/04/30 08:08:03;;;;;;;4.82;4.40;;;;;;;;;;5016753;28;20418;-71
2023/04/30 08:10:28;;;;;;;5.25;4.25;;;;;;;;;;5008977;28;20698;-73
2023/04/30 08:12:54;;;;;;;4.95;4.45;;;;;;;;;;5015372;28;20049;-72
2023/04/30 08:15:20;;;;;;;6.38;4.95;;;;;;;;;;5011532;28;20061;-72
2023/04/30 08:17:48;;;;;;;6.20;5.53;;;;;;;;;;5018567;28;20057;-71
2023/04/30 08:20:14;;;;;;;5.63;5.13;;;;;;;;;;5011811;28;20458;-73
2023/04/30 08:22:40;;;;;;;6.40;5.28;;;;;;;;;;5010039;28;20072;-74
2023/04/30 08:25:09;;;;;;;7.50;5.28;;;;;;;;;;5013750;28;20092;-72
2023/04/30 08:27:36;;;;;;;5.22;4.38;;;;;;;;;;5016116;28;20065;-69
2023/04/30 08:30:01;;;;;;;4.80;4.30;;;;;;;;;;5012674;28;20045;-69
2023/04/30 08:32:27;;;;;;;4.95;4.43;;;;;;;;;;5004873;28;20042;-69
2023/04/30 08:34:53;;;;;;;5.20;4.70;;;;;;;;;;5005790;28;20405;-69
2023/04/30 08:37:18;;;;;;;5.65;5.07;;;;;;;;;;5009328;28;20046;-69
2023/04/30 08:39:44;;;;;;;5.05;4.55;;;;;;;;;;5009445;28;20072;-67
2023/04/30 08:42:13;;;;;;;5.78;5.22;;;;;;;;;;5007426;28;20042;-68
2023/04/30 08:44:42;;;;;;;5.55;4.90;;;;;;;;;;5008042;28;20140;-68
2023/04/30 08:47:12;;;;;;;4.47;4.07;;;;;;;;;;5014470;28;20088;-68
2023/04/30 08:49:37;;;;;;;6.30;5.22;;;;;;;;;;5013671;28;20052;-68
2023/04/30 08:52:03;;;;;;;4.93;4.43;;;;;;;;;;5010731;28;20038;-68
2023/04/30 08:54:31;;;;;;;6.30;4.75;;;;;;;;;;5017565;28;20057;-68
2023/04/30 08:56:57;;;;;;;6.05;5.18;;;;;;;;;;5008043;28;20053;-68
2023/04/30 08:59:22;;;;;;;4.63;4.22;;;;;;;;;;5014465;28;20050;-69
2023/04/30 09:01:48;;;;;;;4.63;4.22;;;;;;;;;;5029153;28;20088;-69
2023/04/30 09:04:14;;;;;;;4.40;3.70;;;;;;;;;;5015456;28;20048;-68
2023/04/30 09:06:39;;;;;;;4.60;4.15;;;;;;;;;;5014471;28;20115;-67
2023/04/30 09:09:10;;;;;;;6.20;4.25;;;;;;;;;;5014231;28;20482;-69
2023/04/30 09:11:36;;;;;;;5.43;4.38;;;;;;;;;;5019707;28;20704;-71
2023/04/30 09:14:02;;;;;;;4.55;4.15;;;;;;;;;;5022914;28;20049;-67
2023/04/30 09:16:48;;;;;;;5.72;4.10;;;;;;;;;;5013435;28;20063;-67
2023/04/30 09:19:24;;;;;;;5.60;5.10;;;;;;;;;;5026994;28;20057;-67
2023/04/30 09:21:50;;;;;;;5.85;5.15;;;;;;;;;;5016905;28;20095;-66
2023/04/30 09:24:16;;;;;;;4.55;4.13;;;;;;;;;;5021908;28;20437;-66
2023/04/30 09:26:42;;;;;;;5.55;3.95;;;;;;;;;;5013374;28;20052;-69
2023/04/30 09:29:09;;;;;;;4.65;3.70;;;;;;;;;;5022297;28;20144;-68
2023/04/30 09:31:38;;;;;;;4.95;4.40;;;;;;;;;;5022132;28;20132;-69
2023/04/30 09:34:05;;;;;;;4.82;4.43;;;;;;;;;;5009361;28;20050;-67
2023/04/30 09:36:31;;;;;;;5.63;4.75;;;;;;;;;;5012491;28;20045;-68
2023/04/30 09:39:05;;;;;;;5.97;5.07;;;;;;;;;;5020816;28;20056;-68
2023/04/30 09:41:31;;;;;;;6.32;4.65;;;;;;;;;;5019064;28;20044;-69
2023/04/30 09:43:56;;;;;;;8.95;6.10;;;;;;;;;;5018975;28;20248;-69
2023/04/30 09:46:30;;;;;;;6.90;5.85;;;;;;;;;;5022232;28;20085;-69
2023/04/30 09:48:57;;;;;;;6.35;5.30;;;;;;;;;;5021723;28;20548;-69
2023/04/30 09:51:23;;;;;;;6.88;5.82;;;;;;;;;;5013320;28;20046;-67
2023/04/30 09:53:50;;;;;;;7.00;5.47;;;;;;;;;;5015739;28;20073;-67
2023/04/30 09:56:19;;;;;;;7.90;4.97;;;;;;;;;;5013381;28;20572;-67
2023/04/30 09:58:50;;;;;;;9.65;5.45;;;;;;;;;;5019990;28;20048;-70
2023/04/30 10:01:16;;;;;;;7.53;5.57;;;;;;;;;;5020536;28;20057;-69
2023/04/30 10:03:42;;;;;;;7.28;5.22;;;;;;;;;;5019510;28;20049;-71
2023/04/30 10:06:11;;;;;;;8.00;5.70;;;;;;;;;;5019930;28;20081;-71
2023/04/30 10:08:41;;;;;;;5.35;4.85;;;;;;;;;;5015710;28;20160;-69
2023/04/30 10:11:08;;;;;;;5.18;4.38;;;;;;;;;;5019411;28;20696;-70
2023/04/30 10:14:06;;;;;;;4.25;3.83;;;;;;;;;;5035946;28;20042;-72
2023/04/30 10:16:47;;;;;;;4.90;4.35;;;;;;;;;;5016409;28;20446;-70
2023/04/30 10:19:23;;;;;;;7.20;5.53;;;;;;;;;;5025768;28;20046;-71
2023/04/30 10:21:50;;;;;;;5.20;4.70;;;;;;;;;;5012332;28;20046;-68
2023/04/30 10:24:18;;;;;;;5.57;5.03;;;;;;;;;;5019412;28;20057;-68
2023/04/30 10:26:45;;;;;;;7.72;5.07;;;;;;;;;;5015563;28;20041;-70
2023/04/30 10:29:12;;;;;;;5.68;4.95;;;;;;;;;;5014037;28;20045;-71
2023/04/30 10:31:40;;;;;;;5.10;4.60;;;;;;;;;;5016518;28;20119;-67
2023/04/30 10:34:24;;;;;;;5.32;4.47;;;;;;;;;;5020808;28;20108;-68
2023/04/30 10:36:55;;;;;;;6.72;4.82;;;;;;;;;;5013069;28;20037;-68
2023/04/30 10:39:22;;;;;;;4.47;4.07;;;;;;;;;;5012038;28;20048;-69
2023/04/30 10:41:48;;;;;;;5.65;4.35;;;;;;;;;;5020683;28;20080;-69
2023/04/30 10:44:14;;;;;;;4.95;4.40;;;;;;;;;;5005798;28;20073;-68
2023/04/30 10:46:40;;;;;;;5.00;4.00;;;;;;;;;;5020399;28;20037;-69
2023/04/30 10:49:07;;;;;;;4.18;3.50;;;;;;;;;;5018816;28;20064;-70
2023/04/30 10:51:50;;;;;;;5.30;3.92;;;;;;;;;;5016137;28;20149;-70
2023/04/30 10:54:24;;;;;;;3.80;3.47;;;;;;;;;;5018350;28;20864;-69
2023/04/30 10:56:50;;;;;;;5.68;3.63;;;;;;;;;;4989700;28;20040;-68
2023/04/30 10:59:16;;;;;;;4.13;3.72;;;;;;;;;;5018721;28;20065;-68
2023/04/30 11:01:56;;;;;;;5.15;3.35;;;;;;;;;;5014611;28;20045;-70
2023/04/30 11:04:22;;;;;;;5.28;3.40;;;;;;;;;;5011039;28;20056;-68
2023/04/30 11:06:55;;;;;;;3.80;3.50;;;;;;;;;;5009121;28;20042;-71
2023/04/30 11:09:38;;;;;;;3.85;3.20;;;;;;;;;;5018260;28;20051;-69
2023/04/30 11:12:09;;;;;;;3.65;3.35;;;;;;;;;;5016948;28;20045;-70
2023/04/30 11:14:43;;;;;;;4.72;3.08;;;;;;;;;;5018608;28;20049;-69
2023/04/30 11:17:10;;;;;;;4.28;3.33;;;;;;;;;;4992218;28;20077;-70
2023/04/30 11:19:44;;;;;;;3.78;2.95;;;;;;;;;;5009869;28;20048;-68
2023/04/30 11:22:10;;;;;;;5.70;3.30;;;;;;;;;;5019794;28;20532;-69
2023/04/30 11:25:12;;;;;;;3.55;3.25;;;;;;;;;;5019824;28;20086;-71
2023/04/30 11:27:43;;;;;;;3.83;3.00;;;;;;;;;;4986749;28;20057;-70
2023/04/30 11:30:14;;;;;;;6.10;2.95;;;;;;;;;;5014871;28;20479;-69
2023/04/30 11:32:42;;;;;;;3.50;2.95;;;;;;;;;;5019597;28;20038;-70
2023/04/30 11:35:08;;;;;;;4.15;2.53;;;;;;;;;;5035453;28;20517;-71
2023/04/30 11:37:38;;;;;;;3.10;2.90;;;;;;;;;;5017665;28;20037;-69
2023/04/30 11:40:15;;;;;;;4.28;3.42;;;;;;;;;;5019760;28;20103;-70
2023/04/30 11:42:47;;;;;;;3.28;2.38;;;;;;;;;;5015265;28;20045;-69
2023/04/30 11:45:16;;;;;;;5.18;2.80;;;;;;;;;;5015538;28;20124;-68
2023/04/30 11:47:53;;;;;;;3.47;2.58;;;;;;;;;;5011443;28;20045;-70
2023/04/30 11:50:28;;;;;;;3.42;2.60;;;;;;;;;;5007686;28;20041;-70
2023/04/30 11:52:57;;;;;;;3.30;3.00;;;;;;;;;;5017759;28;20049;-68
2023/04/30 11:55:24;;;;;;;3.53;3.20;;;;;;;;;;5018148;28;20094;-70
2023/04/30 11:57:54;;;;;;;3.28;2.90;;;;;;;;;;5014356;28;20053;-70
2023/04/30 12:00:21;;;;;;;2.97;2.67;;;;;;;;;;5016590;28;20052;-68
2023/04/30 12:02:48;;;;;;;3.70;2.60;;;;;;;;;;5018664;28;20049;-71
2023/04/30 12:05:16;;;;;;;2.30;2.10;;;;;;;;;;5019036;28;20136;-69
2023/04/30 12:07:46;;;;;;;3.83;2.10;;;;;;;;;;5019455;28;20107;-69
2023/04/30 12:10:11;;;;;;;4.07;2.40;;;;;;;;;;5018904;28;20128;-70
2023/04/30 12:12:37;;;;;;;3.35;2.75;;;;;;;;;;5010121;28;20140;-72
2023/04/30 12:15:14;;;;;;;2.67;2.47;;;;;;;;;;5017695;28;20052;-72
2023/04/30 12:17:39;;;;;;;5.55;2.55;;;;;;;;;;5008689;28;20430;-72
2023/04/30 12:20:07;;;;;;;2.80;2.60;;;;;;;;;;5019449;28;20455;-71
2023/04/30 12:22:33;;;;;;;2.20;2.08;;;;;;;;;;5013402;28;20068;-71
2023/04/30 12:24:59;;;;;;;2.72;2.53;;;;;;;;;;5015615;28;20124;-71
2023/04/30 12:27:25;;;;;;;2.28;2.08;;;;;;;;;;5021450;28;20076;-71
2023/04/30 12:29:53;;;;;;;4.07;2.67;;;;;;;;;;5023031;28;20420;-72
2023/04/30 12:32:20;;;;;;;4.05;2.65;;;;;;;;;;5021547;28;20136;-71
2023/04/30 12:34:47;;;;;;;3.22;2.70;;;;;;;;;;5012486;28;20478;-68
2023/04/30 12:37:16;;;;;;;3.20;2.90;;;;;;;;;;5020981;28;20456;-73
2023/04/30 12:39:42;;;;;;;2.67;2.40;;;;;;;;;;5020719;28;20045;-69
2023/04/30 12:42:07;;;;;;;2.80;2.33;;;;;;;;;;5017659;28;20413;-73
2023/04/30 12:44:42;;;;;;;3.08;2.53;;;;;;;;;;5015531;28;20072;-74
2023/04/30 12:47:08;;;;;;;2.65;2.28;;;;;;;;;;5035137;28;20061;-74
2023/04/30 12:49:35;;;;;;;2.53;2.30;;;;;;;;;;5019354;28;20091;-74
2023/04/30 12:52:07;;;;;;;2.97;2.33;;;;;;;;;;5000134;28;20125;-71
2023/04/30 12:54:33;;;;;;;3.20;2.55;;;;;;;;;;4990251;28;20056;-73
2023/04/30 12:57:09;;;;;;;3.13;2.70;;;;;;;;;;4994697;28;20049;-73
2023/04/30 12:59:53;;;;;;;2.70;2.50;;;;;;;;;;5011817;28;20434;-74
2023/04/30 13:02:23;;;;;;;3.75;2.80;;;;;;;;;;5022117;28;20045;-70
2023/04/30 13:04:49;;;;;;;3.22;2.90;;;;;;;;;;5010645;28;20049;-74
2023/04/30 13:07:15;;;;;;;3.65;2.90;;;;;;;;;;5017261;28;20050;-71
2023/04/30 13:09:40;;;;;;;3.50;2.45;;;;;;;;;;5016693;28;20056;-69
2023/04/30 13:12:06;;;;;;;3.60;2.90;;;;;;;;;;5015448;28;20041;-74
2023/04/30 13:14:32;;;;;;;2.95;2.72;;;;;;;;;;5022523;28;20143;-73
2023/04/30 13:16:58;;;;;;;3.58;3.20;;;;;;;;;;5018623;28;20049;-73
2023/04/30 13:19:24;;;;;;;3.63;2.67;;;;;;;;;;5016679;28;20041;-72
2023/04/30 13:21:49;;;;;;;3.47;2.85;;;;;;;;;;5017568;28;20631;-71
2023/04/30 13:24:17;;;;;;;4.15;3.08;;;;;;;;;;5034254;28;20069;-74
2023/04/30 13:26:43;;;;;;;2.70;2.50;;;;;;;;;;5010576;28;20410;-73
2023/04/30 13:29:08;;;;;;;3.53;2.75;;;;;;;;;;5016280;28;20053;-72
2023/04/30 13:31:34;;;;;;;2.60;2.40;;;;;;;;;;5018892;28;20479;-71
2023/04/30 13:34:00;;;;;;;2.78;2.50;;;;;;;;;;5016620;28;20038;-71
2023/04/30 13:36:26;;;;;;;2.50;2.30;;;;;;;;;;5013068;28;20038;-72
2023/04/30 13:38:51;;;;;;;2.50;2.25;;;;;;;;;;5011449;28;20046;-72
2023/04/30 13:41:17;;;;;;;3.40;2.47;;;;;;;;;;5008157;28;20061;-72
2023/04/30 13:43:45;;;;;;;3.15;2.30;;;;;;;;;;5017734;28;20072;-71
2023/04/30 13:46:11;;;;;;;2.70;2.20;;;;;;;;;;5012007;28;20052;-70
2023/04/30 13:48:36;;;;;;;2.30;2.20;;;;;;;;;;5013939;28;20045;-71
2023/04/30 13:51:02;;;;;;;4.28;2.40;;;;;;;;;;5014103;28;20048;-71
2023/04/30 13:53:27;;;;;;;7.38;2.42;;;;;;;;;;5017261;28;20050;-71
2023/04/30 13:55:53;;;;;;;3.70;2.30;;;;;;;;;;5013117;28;20434;-73
2023/04/30 13:58:19;;;;;;;1.92;1.83;;;;;;;;;;5019204;28;20029;-74
2023/04/30 14:00:45;;;;;;;2.22;1.92;;;;;;;;;;5020102;28;20096;-72
2023/04/30 14:03:11;;;;;;;4.95;2.25;;;;;;;;;;5019892;28;20486;-73
2023/04/30 14:05:38;;;;;;;2.22;2.03;;;;;;;;;;5015178;28;20055;-72
2023/04/30 14:08:04;;;;;;;1.95;1.83;;;;;;;;;;5018540;28;20042;-73
2023/04/30 14:10:30;;;;;;;3.25;2.00;;;;;;;;;;5017853;28;20057;-71
2023/04/30 14:12:55;;;;;;;2.03;1.83;;;;;;;;;;5012600;28;20065;-72
2023/04/30 14:15:21;;;;;;;4.65;2.78;;;;;;;;;;4998994;28;20170;-73
2023/04/30 14:17:47;;;;;;;2.25;2.10;;;;;;;;;;5021193;28;20091;-74
2023/04/30 14:20:12;;;;;;;2.78;2.58;;;;;;;;;;4988438;28;20113;-75
2023/04/30 14:22:39;;;;;;;2.47;2.25;;;;;;;;;;5019256;28;20045;-73
2023/04/30 14:25:05;;;;;;;4.47;2.58;;;;;;;;;;5035136;28;20052;-73
2023/04/30 14:27:30;;;;;;;3.05;2.80;;;;;;;;;;5016751;28;20475;-73
2023/04/30 14:29:56;;;;;;;2.20;2.10;;;;;;;;;;5016467;28;20049;-72
2023/04/30 14:32:24;;;;;;;2.35;2.17;;;;;;;;;;5011619;28;20045;-74
2023/04/30 14:34:50;;;;;;;3.28;1.90;;;;;;;;;;5012580;28;20355;-74
2023/04/30 14:37:15;;;;;;;2.60;2.08;;;;;;;;;;5011809;28;21160;-73
2023/04/30 14:39:42;;;;;;;2.50;1.95;;;;;;;;;;5015295;28;20490;-73
2023/04/30 14:42:09;;;;;;;4.82;2.53;;;;;;;;;;5015884;28;20119;-73
2023/04/30 14:44:36;;;;;;;2.25;2.10;;;;;;;;;;4989486;28;20128;-73
2023/04/30 14:47:02;;;;;;;2.42;2.22;;;;;;;;;;5008816;28;20111;-72